createdAt,value
2022-10-08T00:00:11.251Z,3.80
2022-10-08T00:02:39.287Z,3.40
2022-10-08T00:05:08.150Z,3.40
2022-10-08T00:07:36.145Z,4.60
2022-10-08T00:10:06.328Z,3.13
2022-10-08T00:12:34.311Z,3.23
2022-10-08T00:15:02.267Z,3.33
2022-10-08T00:17:31.558Z,3.63
2022-10-08T00:19:59.533Z,2.90
2022-10-08T00:22:27.493Z,3.23
2022-10-08T00:24:55.602Z,3.03
2022-10-08T00:27:24.435Z,3.67
2022-10-08T00:29:53.086Z,3.30
2022-10-08T00:32:21.040Z,2.57
2022-10-08T00:34:50.406Z,2.80
2022-10-08T00:37:18.379Z,2.73
2022-10-08T00:39:46.323Z,3.30
2022-10-08T00:42:14.284Z,3.70
2022-10-08T00:44:50.845Z,3.00
2022-10-08T00:47:20.263Z,3.20
2022-10-08T00:49:51.168Z,3.07
2022-10-08T00:52:19.129Z,3.60
2022-10-08T00:54:50.228Z,4.77
2022-10-08T00:57:18.399Z,3.20
2022-10-08T00:59:46.347Z,3.30
2022-10-08T01:02:14.508Z,3.43
2022-10-08T01:04:42.728Z,3.23
2022-10-08T01:07:14.135Z,3.50
2022-10-08T01:09:43.481Z,3.53
2022-10-08T01:12:13.295Z,3.43
2022-10-08T01:14:45.064Z,3.97
2022-10-08T01:17:15.652Z,2.93
2022-10-08T01:19:57.610Z,3.77
2022-10-08T01:22:36.246Z,4.30
2022-10-08T01:25:29.125Z,3.93
2022-10-08T01:28:01.031Z,3.27
2022-10-08T01:30:29.038Z,3.73
2022-10-08T01:32:59.148Z,4.37
2022-10-08T01:35:29.520Z,3.47
2022-10-08T01:37:57.872Z,4.43
2022-10-08T01:40:29.139Z,3.53
2022-10-08T01:42:58.725Z,5.07
2022-10-08T01:45:28.414Z,3.87
2022-10-08T01:47:56.428Z,4.80
2022-10-08T01:50:28.235Z,3.60
2022-10-08T01:52:57.404Z,4.40
2022-10-08T01:55:26.749Z,4.10
2022-10-08T01:57:55.252Z,3.90
2022-10-08T02:00:24.645Z,3.80
2022-10-08T02:02:52.726Z,4.77
2022-10-08T02:05:20.670Z,5.83
2022-10-08T02:07:50.191Z,5.20
2022-10-08T02:10:18.995Z,3.90
2022-10-08T02:12:47.091Z,4.20
2022-10-08T02:15:16.516Z,3.23
2022-10-08T02:17:51.848Z,3.20
2022-10-08T02:20:21.046Z,2.93
2022-10-08T02:22:53.611Z,4.40
2022-10-08T02:25:24.303Z,3.53
2022-10-08T02:27:55.360Z,3.40
2022-10-08T02:30:23.325Z,3.73
2022-10-08T02:32:54.645Z,4.00
2022-10-08T02:35:25.499Z,3.70
2022-10-08T02:37:56.542Z,3.43
2022-10-08T02:40:25.116Z,4.87
2022-10-08T02:42:54.409Z,4.10
2022-10-08T02:45:24.435Z,3.63
2022-10-08T02:47:55.379Z,3.93
2022-10-08T02:50:24.344Z,4.00
2022-10-08T02:52:52.320Z,5.60
2022-10-08T02:55:25.084Z,4.23
2022-10-08T02:57:56.271Z,4.80
2022-10-08T03:00:24.377Z,5.17
2022-10-08T03:02:56.998Z,4.80
2022-10-08T03:05:24.944Z,4.90
2022-10-08T03:07:52.913Z,5.07
2022-10-08T03:10:24.591Z,5.87
2022-10-08T03:12:52.586Z,3.80
2022-10-08T03:15:20.862Z,4.93
2022-10-08T03:17:48.801Z,6.27
2022-10-08T03:20:18.138Z,5.50
2022-10-08T03:22:46.365Z,5.70
2022-10-08T03:25:14.466Z,5.13
2022-10-08T03:27:42.458Z,4.47
2022-10-08T03:30:12.120Z,5.37
2022-10-08T03:32:40.105Z,5.30
2022-10-08T03:35:08.382Z,6.40
2022-10-08T03:37:37.706Z,6.40
2022-10-08T03:40:06.442Z,8.33
2022-10-08T03:42:34.456Z,9.20
2022-10-08T03:45:02.448Z,7.27
2022-10-08T03:47:30.474Z,7.23
2022-10-08T03:49:58.461Z,7.57
2022-10-08T03:52:26.419Z,8.33
2022-10-08T03:54:55.761Z,8.50
2022-10-08T03:57:23.746Z,8.33
2022-10-08T03:59:51.844Z,7.07
2022-10-08T04:02:19.892Z,6.60
2022-10-08T04:04:47.900Z,5.87
2022-10-08T04:07:15.897Z,5.53
2022-10-08T04:09:43.869Z,5.03
2022-10-08T04:12:13.215Z,5.57
2022-10-08T04:14:41.205Z,5.03
2022-10-08T04:17:09.243Z,4.77
2022-10-08T04:19:37.177Z,5.03
2022-10-08T04:22:05.196Z,4.40
2022-10-08T04:24:33.115Z,4.20
2022-10-08T04:27:01.188Z,4.43
2022-10-08T04:29:30.503Z,4.13
2022-10-08T04:31:58.485Z,4.00
2022-10-08T04:34:26.429Z,3.70
2022-10-08T04:36:54.351Z,5.43
2022-10-08T04:39:22.366Z,5.90
2022-10-08T04:41:50.397Z,7.10
2022-10-08T04:44:18.365Z,8.17
2022-10-08T04:46:47.799Z,6.83
2022-10-08T04:49:15.860Z,7.63
2022-10-08T04:51:43.881Z,9.90
2022-10-08T04:54:11.848Z,8.03
2022-10-08T04:56:39.799Z,10.63
2022-10-08T04:59:07.809Z,11.83
2022-10-08T05:01:35.815Z,8.17
2022-10-08T05:04:05.253Z,6.70
2022-10-08T05:06:33.231Z,7.47
2022-10-08T05:09:03.189Z,8.07
2022-10-08T05:11:31.319Z,7.13
2022-10-08T05:13:59.698Z,5.90
2022-10-08T05:16:27.736Z,7.90
2022-10-08T05:18:55.754Z,8.03
2022-10-08T05:21:26.640Z,9.00
2022-10-08T05:23:55.847Z,6.70
2022-10-08T05:26:41.611Z,8.33
2022-10-08T05:29:12.973Z,8.07
2022-10-08T05:31:40.900Z,8.40
2022-10-08T05:34:08.971Z,8.13
2022-10-08T05:36:38.322Z,6.50
2022-10-08T05:39:06.400Z,9.00
2022-10-08T05:41:35.448Z,7.20
2022-10-08T05:44:03.507Z,6.73
2022-10-08T05:46:32.693Z,8.37
2022-10-08T05:49:01.524Z,8.30
2022-10-08T05:51:29.584Z,8.37
2022-10-08T05:53:59.861Z,8.60
2022-10-08T05:56:28.496Z,8.00
2022-10-08T05:58:56.487Z,8.90
2022-10-08T06:01:25.486Z,9.40
2022-10-08T06:03:54.220Z,8.73
2022-10-08T06:06:22.854Z,7.57
2022-10-08T06:08:54.356Z,7.33
2022-10-08T06:11:23.707Z,7.33
2022-10-08T06:13:53.392Z,7.00
2022-10-08T06:16:21.519Z,5.43
2022-10-08T06:18:49.566Z,5.67
2022-10-08T06:21:18.162Z,6.50
2022-10-08T06:23:46.976Z,5.87
2022-10-08T06:26:14.947Z,6.80
2022-10-08T06:28:44.343Z,6.30
2022-10-08T06:31:12.470Z,5.93
2022-10-08T06:33:40.469Z,6.30
2022-10-08T06:36:09.400Z,6.47
2022-10-08T06:38:37.375Z,5.80
2022-10-08T06:41:05.389Z,5.20
2022-10-08T06:43:33.417Z,5.30
2022-10-08T06:46:05.199Z,5.20
2022-10-08T06:48:33.258Z,4.20
2022-10-08T06:51:01.677Z,4.60
2022-10-08T06:53:29.687Z,3.90
2022-10-08T06:55:58.479Z,3.70
2022-10-08T06:58:26.601Z,5.50
2022-10-08T07:01:03.887Z,4.80
2022-10-08T07:03:32.038Z,4.90
2022-10-08T07:06:01.541Z,4.50
2022-10-08T07:08:29.668Z,4.63
2022-10-08T07:11:02.933Z,4.37
2022-10-08T07:13:30.949Z,5.00
2022-10-08T07:16:03.922Z,4.07
2022-10-08T07:18:32.261Z,3.60
2022-10-08T07:21:00.236Z,4.37
2022-10-08T07:23:28.252Z,4.40
2022-10-08T07:25:57.778Z,4.33
2022-10-08T07:28:25.916Z,4.90
2022-10-08T07:30:53.948Z,5.23
2022-10-08T07:33:23.446Z,4.40
2022-10-08T07:35:51.445Z,4.90
2022-10-08T07:38:19.926Z,5.40
2022-10-08T07:40:50.033Z,5.30
2022-10-08T07:43:19.885Z,5.23
2022-10-08T07:45:47.928Z,5.40
2022-10-08T07:48:16.582Z,4.87
2022-10-08T07:50:45.883Z,4.63
2022-10-08T07:53:13.859Z,4.80
2022-10-08T07:55:41.865Z,5.10
2022-10-08T07:58:09.969Z,5.53
2022-10-08T08:00:40.007Z,4.87
2022-10-08T08:03:08.028Z,3.90
2022-10-08T08:05:36.188Z,4.27
2022-10-08T08:08:05.564Z,5.50
2022-10-08T08:10:33.623Z,4.87
2022-10-08T08:13:01.673Z,4.43
2022-10-08T08:15:29.611Z,3.90
2022-10-08T08:17:57.631Z,3.90
2022-10-08T08:20:25.583Z,4.80
2022-10-08T08:22:53.572Z,4.50
2022-10-08T08:25:22.907Z,3.63
2022-10-08T08:27:50.857Z,3.77
2022-10-08T08:30:18.928Z,3.80
2022-10-08T08:32:47.097Z,3.47
2022-10-08T08:35:15.282Z,3.50
2022-10-08T08:37:43.277Z,3.53
2022-10-08T08:40:11.806Z,3.27
2022-10-08T08:42:48.447Z,3.43
2022-10-08T08:45:45.489Z,3.10
2022-10-08T08:48:16.424Z,3.10
2022-10-08T08:50:48.490Z,3.93
2022-10-08T08:53:16.822Z,2.97
2022-10-08T08:55:46.205Z,3.30
2022-10-08T08:58:22.485Z,4.07
2022-10-08T09:00:54.557Z,3.93
2022-10-08T09:03:23.768Z,3.40
2022-10-08T09:05:53.438Z,3.63
2022-10-08T09:08:22.470Z,2.70
2022-10-08T09:10:53.673Z,3.13
2022-10-08T09:13:25.743Z,4.00
2022-10-08T09:15:55.268Z,2.73
2022-10-08T09:18:23.230Z,3.20
2022-10-08T09:20:51.184Z,3.30
2022-10-08T09:23:19.866Z,3.10
2022-10-08T09:25:50.911Z,2.77
2022-10-08T09:28:41.794Z,2.30
2022-10-08T09:31:21.253Z,2.80
2022-10-08T09:33:55.476Z,2.77
2022-10-08T09:36:31.183Z,3.27
2022-10-08T09:38:59.386Z,3.37
2022-10-08T09:41:28.917Z,2.40
2022-10-08T09:44:12.915Z,2.73
2022-10-08T09:46:40.857Z,2.40
2022-10-08T09:49:28.534Z,2.00
2022-10-08T09:51:57.428Z,2.50
2022-10-08T09:54:26.426Z,3.20
2022-10-08T09:56:54.899Z,2.43
2022-10-08T09:59:24.819Z,2.83
2022-10-08T10:01:53.190Z,2.93
2022-10-08T10:04:22.054Z,2.63
2022-10-08T10:06:50.120Z,3.90
2022-10-08T10:09:26.472Z,3.00
2022-10-08T10:11:55.677Z,3.00
2022-10-08T10:14:26.926Z,2.60
2022-10-08T10:16:57.677Z,2.80
2022-10-08T10:19:26.944Z,1.60
2022-10-08T10:21:57.957Z,1.50
2022-10-08T10:24:37.445Z,2.83
2022-10-08T10:27:08.438Z,2.70
2022-10-08T10:29:45.620Z,2.53
2022-10-08T10:32:16.929Z,2.33
2022-10-08T10:34:51.307Z,2.00
2022-10-08T10:37:22.202Z,2.27
2022-10-08T10:39:52.662Z,2.07
2022-10-08T10:42:22.309Z,1.90
2022-10-08T10:44:53.570Z,2.10
2022-10-08T10:47:22.405Z,2.13
2022-10-08T10:49:51.203Z,2.63
2022-10-08T10:52:33.944Z,2.40
2022-10-08T10:55:22.535Z,2.43
2022-10-08T10:58:08.417Z,2.10
2022-10-08T11:00:41.581Z,1.90
2022-10-08T11:03:12.023Z,2.27
2022-10-08T11:05:40.080Z,2.13
2022-10-08T11:08:25.553Z,2.10
2022-10-08T11:10:59.071Z,2.67
2022-10-08T11:13:45.381Z,2.23
2022-10-08T11:16:23.003Z,2.20
2022-10-08T11:18:52.576Z,2.40
2022-10-08T11:21:28.796Z,1.70
2022-10-08T11:24:05.202Z,1.90
2022-10-08T11:26:34.855Z,1.97
2022-10-08T11:29:07.365Z,2.17
2022-10-08T11:31:41.339Z,2.40
2022-10-08T11:34:17.455Z,2.87
2022-10-08T11:36:48.270Z,2.17
2022-10-08T11:39:18.490Z,2.00
2022-10-08T11:41:49.430Z,2.47
2022-10-08T11:44:17.466Z,2.47
2022-10-08T11:46:46.808Z,1.80
2022-10-08T11:49:49.795Z,1.80
2022-10-08T11:52:18.007Z,2.27
2022-10-08T11:54:54.487Z,1.80
2022-10-08T11:57:24.893Z,1.90
2022-10-08T11:59:57.227Z,2.55
2022-10-08T12:02:28.823Z,1.80
2022-10-08T12:04:58.552Z,2.00
2022-10-08T12:07:29.538Z,1.90
2022-10-08T12:10:24.498Z,1.90
2022-10-08T12:13:22.796Z,2.00
2022-10-08T12:15:52.443Z,1.93
2022-10-08T12:18:54.945Z,1.90
2022-10-08T12:21:53.003Z,2.37
2022-10-08T12:24:53.739Z,2.03
2022-10-08T12:27:40.034Z,2.30
2022-10-08T12:30:09.896Z,2.43
2022-10-08T12:32:55.354Z,2.10
2022-10-08T12:35:27.361Z,2.20
2022-10-08T12:38:11.435Z,2.20
2022-10-08T12:40:41.867Z,2.60
2022-10-08T12:43:18.750Z,1.73
2022-10-08T12:45:55.603Z,1.90
2022-10-08T12:48:32.130Z,1.97
2022-10-08T12:51:09.932Z,2.10
2022-10-08T12:53:37.890Z,1.53
2022-10-08T12:56:05.871Z,1.73
2022-10-08T12:58:35.532Z,1.57
2022-10-08T13:01:04.483Z,1.90
2022-10-08T13:03:32.462Z,2.17
2022-10-08T13:06:09.594Z,2.33
2022-10-08T13:08:38.825Z,1.50
2022-10-08T13:11:09.088Z,1.77
2022-10-08T13:13:43.740Z,3.73
2022-10-08T13:16:13.437Z,1.70
2022-10-08T13:18:42.534Z,1.73
2022-10-08T13:21:35.379Z,2.13
2022-10-08T13:24:04.206Z,2.10
2022-10-08T13:26:39.481Z,2.13
2022-10-08T13:29:32.852Z,2.10
2022-10-08T13:32:02.615Z,2.00
2022-10-08T13:34:32.315Z,2.63
2022-10-08T13:37:02.674Z,1.60
2022-10-08T13:39:31.716Z,1.83
2022-10-08T13:42:00.989Z,2.00
2022-10-08T13:44:29.201Z,2.23
2022-10-08T13:47:01.297Z,2.43
2022-10-08T13:49:31.411Z,2.80
2022-10-08T13:51:59.428Z,1.97
2022-10-08T13:54:30.369Z,1.57
2022-10-08T13:56:58.478Z,1.53
2022-10-08T13:59:30.466Z,2.30
2022-10-08T14:01:58.767Z,1.90
2022-10-08T14:04:27.121Z,1.50
2022-10-08T14:06:56.011Z,2.30
2022-10-08T14:09:24.971Z,2.10
2022-10-08T14:11:57.011Z,1.77
2022-10-08T14:14:25.070Z,1.73
2022-10-08T14:16:53.342Z,1.73
2022-10-08T14:19:21.625Z,2.10
2022-10-08T14:21:49.892Z,3.47
2022-10-08T14:24:17.836Z,2.00
2022-10-08T14:26:45.780Z,2.00
2022-10-08T14:29:15.137Z,1.87
2022-10-08T14:31:43.127Z,1.43
2022-10-08T14:34:11.058Z,2.20
2022-10-08T14:36:40.080Z,2.60
2022-10-08T14:39:08.230Z,2.00
2022-10-08T14:41:36.240Z,1.40
2022-10-08T14:44:04.252Z,2.00
2022-10-08T14:46:33.634Z,2.17
2022-10-08T14:49:02.807Z,1.70
2022-10-08T14:51:37.467Z,2.37
2022-10-08T14:54:06.389Z,2.20
2022-10-08T14:56:34.368Z,2.30
2022-10-08T14:59:02.378Z,2.53
2022-10-08T15:01:32.599Z,2.33
2022-10-08T15:04:02.009Z,2.20
2022-10-08T15:06:30.034Z,2.13
2022-10-08T15:08:57.984Z,2.30
2022-10-08T15:11:26.094Z,2.80
2022-10-08T15:13:54.167Z,2.47
2022-10-08T15:16:22.242Z,2.80
2022-10-08T15:18:50.399Z,3.10
2022-10-08T15:21:20.028Z,2.50
2022-10-08T15:23:48.000Z,2.90
2022-10-08T15:26:16.833Z,3.43
2022-10-08T15:28:46.196Z,3.07
2022-10-08T15:31:15.229Z,4.00
2022-10-08T15:33:44.054Z,6.30
2022-10-08T15:36:20.129Z,5.13
2022-10-08T15:38:48.322Z,4.80
2022-10-08T15:41:17.532Z,4.43
2022-10-08T15:43:45.696Z,4.50
2022-10-08T15:46:16.177Z,3.83
2022-10-08T15:48:44.238Z,3.00
2022-10-08T15:51:12.968Z,3.60
2022-10-08T15:53:42.369Z,2.73
2022-10-08T15:56:11.926Z,3.23
2022-10-08T15:58:50.332Z,3.07
2022-10-08T16:01:20.255Z,3.63
2022-10-08T16:03:49.042Z,4.07
2022-10-08T16:06:18.189Z,3.30
2022-10-08T16:08:47.583Z,3.77
2022-10-08T16:11:16.283Z,3.63
2022-10-08T16:13:44.296Z,4.10
2022-10-08T16:16:15.145Z,5.37
2022-10-08T16:18:43.427Z,5.90
2022-10-08T16:21:11.543Z,4.10
2022-10-08T16:23:39.516Z,3.50
2022-10-08T16:26:10.391Z,4.00
2022-10-08T16:28:39.307Z,3.60
2022-10-08T16:31:07.645Z,3.67
2022-10-08T16:33:35.643Z,3.93
2022-10-08T16:36:04.058Z,4.03
2022-10-08T16:38:32.034Z,4.17
2022-10-08T16:41:12.557Z,3.80
2022-10-08T16:43:40.559Z,4.07
2022-10-08T16:46:15.073Z,4.70
2022-10-08T16:48:43.068Z,5.10
2022-10-08T16:51:11.785Z,4.50
2022-10-08T16:53:39.765Z,4.63
2022-10-08T16:56:07.835Z,4.00
2022-10-08T16:58:37.202Z,3.70
2022-10-08T17:01:08.593Z,3.10
2022-10-08T17:03:36.915Z,4.50
2022-10-08T17:06:05.410Z,3.50
2022-10-08T17:08:33.432Z,4.97
2022-10-08T17:11:04.860Z,4.30
2022-10-08T17:13:32.853Z,3.53
2022-10-08T17:16:02.894Z,3.20
2022-10-08T17:18:32.356Z,5.33
2022-10-08T17:21:00.708Z,3.30
2022-10-08T17:23:33.886Z,3.73
2022-10-08T17:26:04.442Z,4.50
2022-10-08T17:28:33.458Z,3.67
2022-10-08T17:31:03.330Z,3.90
2022-10-08T17:33:35.480Z,4.07
2022-10-08T17:36:04.877Z,4.00
2022-10-08T17:38:32.920Z,3.80
2022-10-08T17:41:00.908Z,3.90
2022-10-08T17:43:28.933Z,2.90
2022-10-08T17:45:56.982Z,2.80
2022-10-08T17:48:26.421Z,3.27
2022-10-08T17:50:54.402Z,3.93
2022-10-08T17:53:22.395Z,3.90
2022-10-08T17:55:59.024Z,3.20
2022-10-08T17:58:27.026Z,4.13
2022-10-08T18:00:55.148Z,5.13
2022-10-08T18:03:23.137Z,5.27
2022-10-08T18:05:59.029Z,6.30
2022-10-08T18:08:27.090Z,7.07
2022-10-08T18:10:55.039Z,6.40
2022-10-08T18:13:23.041Z,7.03
2022-10-08T18:15:51.220Z,4.93
2022-10-08T18:18:19.241Z,4.30
2022-10-08T18:20:56.439Z,5.57
2022-10-08T18:23:25.999Z,5.23
2022-10-08T18:25:54.207Z,5.07
2022-10-08T18:28:22.394Z,5.10
2022-10-08T18:30:50.586Z,3.80
2022-10-08T18:33:22.711Z,5.20
2022-10-08T18:35:52.002Z,4.20
2022-10-08T18:38:20.053Z,3.73
2022-10-08T18:40:49.394Z,4.20
2022-10-08T18:43:17.333Z,4.60
2022-10-08T18:45:45.322Z,4.83
2022-10-08T18:48:13.263Z,4.33
2022-10-08T18:50:41.295Z,4.13
2022-10-08T18:53:09.256Z,3.70
2022-10-08T18:55:37.225Z,4.30
2022-10-08T18:58:06.564Z,3.90
2022-10-08T19:00:38.930Z,3.70
2022-10-08T19:03:06.979Z,4.87
2022-10-08T19:05:38.584Z,3.90
2022-10-08T19:08:06.551Z,3.50
2022-10-08T19:10:34.539Z,4.53
2022-10-08T19:13:02.523Z,6.20
2022-10-08T19:15:31.936Z,4.00
2022-10-08T19:17:59.944Z,4.40
2022-10-08T19:20:27.919Z,4.33
2022-10-08T19:22:55.838Z,3.53
2022-10-08T19:25:23.812Z,3.57
2022-10-08T19:27:51.788Z,3.80
2022-10-08T19:30:24.821Z,4.10
2022-10-08T19:32:55.309Z,3.60
2022-10-08T19:35:23.300Z,3.90
2022-10-08T19:37:51.275Z,4.10
2022-10-08T19:40:19.249Z,4.30
2022-10-08T19:42:47.537Z,4.37
2022-10-08T19:45:15.756Z,3.97
2022-10-08T19:47:43.835Z,5.00
2022-10-08T19:50:13.134Z,4.33
2022-10-08T19:52:41.100Z,4.80
2022-10-08T19:55:10.020Z,4.43
2022-10-08T19:57:38.175Z,5.57
2022-10-08T20:00:08.450Z,3.80
2022-10-08T20:02:36.520Z,5.13
2022-10-08T20:05:04.761Z,5.00
2022-10-08T20:07:34.144Z,4.20
2022-10-08T20:10:02.101Z,5.60
2022-10-08T20:12:30.061Z,4.30
2022-10-08T20:14:58.038Z,6.13
2022-10-08T20:17:25.983Z,7.43
2022-10-08T20:20:01.632Z,5.90
2022-10-08T20:22:43.388Z,5.40
2022-10-08T20:25:11.386Z,4.67
2022-10-08T20:27:39.336Z,5.97
2022-10-08T20:30:08.320Z,4.80
2022-10-08T20:32:36.300Z,6.17
2022-10-08T20:35:04.296Z,4.90
2022-10-08T20:37:32.459Z,4.93
2022-10-08T20:40:01.850Z,4.87
2022-10-08T20:42:29.921Z,4.97
2022-10-08T20:44:57.913Z,4.80
2022-10-08T20:47:25.877Z,4.07
2022-10-08T20:49:53.818Z,5.83
2022-10-08T20:52:21.771Z,5.23
2022-10-08T20:54:49.818Z,5.00
2022-10-08T20:57:19.158Z,5.27
2022-10-08T20:59:47.201Z,5.30
2022-10-08T21:02:19.508Z,6.03
2022-10-08T21:04:47.814Z,4.90
2022-10-08T21:07:15.811Z,4.50
2022-10-08T21:09:43.853Z,6.43
2022-10-08T21:12:11.788Z,5.73
2022-10-08T21:14:41.119Z,6.03
2022-10-08T21:17:09.056Z,5.60
2022-10-08T21:19:37.100Z,6.13
2022-10-08T21:22:07.817Z,5.57
2022-10-08T21:24:36.967Z,6.47
2022-10-08T21:27:05.129Z,6.27
2022-10-08T21:29:33.091Z,5.30
2022-10-08T21:32:02.526Z,5.20
2022-10-08T21:34:30.514Z,4.80
2022-10-08T21:36:58.455Z,4.77
2022-10-08T21:39:26.698Z,5.20
2022-10-08T21:41:55.101Z,5.60
2022-10-08T21:44:23.227Z,6.00
2022-10-08T21:46:51.178Z,5.10
2022-10-08T21:49:21.038Z,5.17
2022-10-08T21:51:49.030Z,6.00
2022-10-08T21:54:17.189Z,5.50
2022-10-08T21:56:45.552Z,6.60
2022-10-08T21:59:14.234Z,6.47
2022-10-08T22:01:43.655Z,6.90
2022-10-08T22:04:12.313Z,6.43
2022-10-08T22:06:42.719Z,6.67
2022-10-08T22:09:12.012Z,5.63
2022-10-08T22:11:40.309Z,6.77
2022-10-08T22:14:08.296Z,7.40
2022-10-08T22:16:36.359Z,5.73
2022-10-08T22:19:04.434Z,6.10
2022-10-08T22:21:32.430Z,5.90
2022-10-08T22:24:01.776Z,5.83
2022-10-08T22:26:30.700Z,5.50
2022-10-08T22:28:58.655Z,6.33
2022-10-08T22:31:26.822Z,5.07
2022-10-08T22:33:54.914Z,5.60
2022-10-08T22:36:23.871Z,4.50
2022-10-08T22:38:51.927Z,4.70
2022-10-08T22:41:22.313Z,5.27
2022-10-08T22:43:50.420Z,5.00
2022-10-08T22:46:19.281Z,5.07
2022-10-08T22:48:47.454Z,5.40
2022-10-08T22:51:16.080Z,4.60
2022-10-08T22:53:44.266Z,5.43
2022-10-08T22:56:13.332Z,4.77
2022-10-08T22:58:43.228Z,5.40
2022-10-08T23:01:11.895Z,4.47
2022-10-08T23:03:40.042Z,4.87
2022-10-08T23:06:09.206Z,5.10
2022-10-08T23:08:37.317Z,5.17
2022-10-08T23:11:05.405Z,4.10
2022-10-08T23:13:33.534Z,5.53
2022-10-08T23:16:03.578Z,4.90
2022-10-08T23:18:31.847Z,4.57
2022-10-08T23:21:02.122Z,4.30
2022-10-08T23:23:30.144Z,4.87
2022-10-08T23:25:58.359Z,4.20
2022-10-08T23:28:26.450Z,4.00
2022-10-08T23:30:54.427Z,4.37
2022-10-08T23:33:23.786Z,4.27
2022-10-08T23:35:55.246Z,5.47
2022-10-08T23:38:23.698Z,4.00
2022-10-08T23:40:51.778Z,4.47
2022-10-08T23:43:19.726Z,4.03
2022-10-08T23:45:47.750Z,3.80
2022-10-08T23:48:15.746Z,3.93
2022-10-08T23:50:45.102Z,5.33
2022-10-08T23:53:13.082Z,7.53
2022-10-08T23:55:41.035Z,5.50
2022-10-08T23:58:09.740Z,4.40
